CDF5 weather

Elora Airport
Elora, Ontario, Canada

Public forecast

Using degrees Celsius for public forecast. Weather courtesy of forecast.io.

Closest aviation weather report (METAR) to Elora Airport

Closest report is Waterloo Airport, 10.3 nm (19.2 km) S. Retrieved 2019/10/24 00:00 UTC (27 minutes ago):

CYKF 240000Z AUTO 21007KT 9SM CLR 08/00 A2999 RMK SLP164

Closest aviation forecast (TAF) to Elora Airport

Closest forecast is Waterloo Airport, 10.3 nm (19.2 km) S. Retrieved 2019-10-24 02:39 UTC (0 seconds ago):

TAF CYKF 240138Z 2402/2414 23012KT P6SM SKC FM240500 24012KT P6SM BKN050 BKN080 FM241000 23013G23KT P6SM -SHRA BKN020 OVC050 BECMG 2411/2413 23015G25KT RMK FCST BASED ON AUTO OBS NXT FCST BY 240800Z